Datos actuales meteorológicos del Aeropuerto de Valencia      LEVC Valencia Airport



Temperatura
21°C Temperatura
15°C Punto de rocío
69% Humedad



Viento
11 KM/H
7 MPH
3 M/S
6 NUDO



280°
Oeste
Condiciones actuales

Claro Claro
Presión 1014.92 (hPa) - 29.97 (inHg)
Visibilidad 6.2 (milla) - 10 (km)
✈️ Manises
Código de aeropuerto LEVC

localidad: Valencia Airport
Distancia de Meteo Lliria: 18 (km)

Metar:
LEVC 210130Z 28006KT CAVOK 21/15 Q1015 NOSIG

Hora: 21-09-2020 03:30 CEST

Follow @meteolliria2013